Time;durP1;ratioP1;P1;durP2;ratioP2;P2;SDS_P1;SDS_P2;PMS_P1;PMS_P2;Temp;Humidity;BMP_temperature;BMP_pressure;BME280_temperature;BME280_humidity;BME280_pressure;Samples;Min_cycle;Max_cycle;Signal;HPM_P1;HPM_P2
2022/06/01 00:01:25;;;;;;;7.15;2.17;;;18.90;47.80;;;;;;7369872;19;20010;-76
2022/06/01 00:03:54;;;;;;;4.32;1.85;;;18.90;47.90;;;;;;7372598;19;20010;-77
2022/06/01 00:06:22;;;;;;;3.70;1.60;;;18.80;48.30;;;;;;7370633;19;20062;-77
2022/06/01 00:08:53;;;;;;;2.28;1.70;;;18.70;48.50;;;;;;7373293;19;20107;-77
2022/06/01 00:11:22;;;;;;;4.55;2.33;;;18.60;48.70;;;;;;7372901;19;20017;-78
2022/06/01 00:13:51;;;;;;;2.65;1.83;;;18.60;48.70;;;;;;7392990;19;20081;-76
2022/06/01 00:16:22;;;;;;;2.50;1.45;;;18.60;48.70;;;;;;7371679;19;20458;-76
2022/06/01 00:18:50;;;;;;;9.27;1.70;;;18.60;48.70;;;;;;7369588;19;20019;-76
2022/06/01 00:21:19;;;;;;;1.52;1.30;;;18.60;48.60;;;;;;7372504;19;20445;-77
2022/06/01 00:23:48;;;;;;;3.72;1.50;;;18.60;48.50;;;;;;7369192;19;20078;-76
2022/06/01 00:26:23;;;;;;;5.20;1.42;;;18.60;48.40;;;;;;7383126;19;20022;-77
2022/06/01 00:28:51;;;;;;;3.38;1.70;;;18.50;48.40;;;;;;7392927;19;20097;-76
2022/06/01 00:31:20;;;;;;;3.05;1.67;;;18.50;48.60;;;;;;7367302;19;20090;-76
2022/06/01 00:33:49;;;;;;;1.85;1.52;;;18.40;48.80;;;;;;7371220;19;20077;-76
2022/06/01 00:36:17;;;;;;;2.22;1.38;;;18.40;48.80;;;;;;7368994;19;20235;-76
2022/06/01 00:38:46;;;;;;;1.80;1.60;;;18.40;49.00;;;;;;7371546;19;20022;-76
2022/06/01 00:41:15;;;;;;;3.33;1.90;;;18.40;49.10;;;;;;7391843;19;20094;-75
2022/06/01 00:43:49;;;;;;;2.00;1.50;;;18.30;49.10;;;;;;7370811;19;20018;-76
2022/06/01 00:46:18;;;;;;;2.60;1.50;;;18.30;49.30;;;;;;7370424;19;20867;-76
2022/06/01 00:48:52;;;;;;;3.90;1.40;;;18.20;49.30;;;;;;7370045;19;20078;-77
2022/06/01 00:51:30;;;;;;;3.75;1.45;;;18.20;49.40;;;;;;7371565;19;20028;-77
2022/06/01 00:54:00;;;;;;;3.15;1.42;;;18.20;49.10;;;;;;7370858;19;20029;-76
2022/06/01 00:56:34;;;;;;;3.40;2.10;;;18.20;49.10;;;;;;7368527;19;20029;-76
2022/06/01 00:59:11;;;;;;;2.28;1.67;;;18.20;49.40;;;;;;7390123;19;20026;-77
2022/06/01 01:01:41;;;;;;;4.72;2.00;;;18.30;49.30;;;;;;7369927;19;20396;-77
2022/06/01 01:04:10;;;;;;;3.70;2.17;;;18.30;49.30;;;;;;7370683;19;20082;-76
2022/06/01 01:06:43;;;;;;;2.28;1.73;;;18.30;49.10;;;;;;7368691;19;20420;-77
2022/06/01 01:09:13;;;;;;;4.35;2.17;;;18.30;49.20;;;;;;7370689;19;20010;-76
2022/06/01 01:11:49;;;;;;;4.50;2.28;;;18.30;49.20;;;;;;7368363;19;20051;-76
2022/06/01 01:14:25;;;;;;;7.85;2.47;;;18.30;49.50;;;;;;7369959;19;20486;-77
2022/06/01 01:16:55;;;;;;;4.05;1.90;;;18.20;49.50;;;;;;7385933;19;20019;-76
2022/06/01 01:19:31;;;;;;;2.90;1.83;;;18.20;49.50;;;;;;7370205;19;20022;-77
2022/06/01 01:22:10;;;;;;;3.20;1.85;;;18.20;49.50;;;;;;7369882;19;20025;-77
2022/06/01 01:24:50;;;;;;;4.75;1.80;;;18.20;49.30;;;;;;7369413;19;20018;-76
2022/06/01 01:27:22;;;;;;;2.00;1.63;;;18.10;49.30;;;;;;7369692;19;20006;-77
2022/06/01 01:29:51;;;;;;;3.30;2.00;;;18.10;49.50;;;;;;7368603;19;20078;-76
2022/06/01 01:32:20;;;;;;;6.22;2.25;;;18.10;49.50;;;;;;7367725;19;20370;-77
2022/06/01 01:34:48;;;;;;;4.03;1.90;;;18.10;49.40;;;;;;7390201;19;20094;-76
2022/06/01 01:37:24;;;;;;;3.30;1.55;;;18.00;49.60;;;;;;7367512;19;20022;-76
2022/06/01 01:39:55;;;;;;;2.40;1.58;;;17.90;49.70;;;;;;7370204;19;20138;-76
2022/06/01 01:42:26;;;;;;;;;;;17.90;49.80;;;;;;7369834;19;20027;-76
2022/06/01 01:45:03;;;;;;;3.05;1.90;;;17.90;49.70;;;;;;7368337;19;19987;-77
2022/06/01 01:47:32;;;;;;;1.98;1.80;;;18.00;49.70;;;;;;7368083;19;20097;-77
2022/06/01 01:50:01;;;;;;;4.65;1.90;;;17.90;49.90;;;;;;7391546;19;20014;-77
2022/06/01 01:52:30;;;;;;;4.57;2.13;;;17.80;50.10;;;;;;7366072;19;20083;-77
2022/06/01 01:55:04;;;;;;;3.28;1.90;;;17.70;50.00;;;;;;7369050;19;20082;-77
2022/06/01 01:57:43;;;;;;;2.05;1.50;;;17.70;49.90;;;;;;7368273;19;20025;-77
2022/06/01 02:00:17;;;;;;;3.90;1.40;;;17.70;49.80;;;;;;7368508;19;20023;-77
2022/06/01 02:02:55;;;;;;;2.53;1.73;;;17.70;49.80;;;;;;7369034;19;20476;-77
2022/06/01 02:08:17;;;;;;;2.78;1.77;;;17.60;50.10;;;;;;7390571;19;20014;-76
2022/06/01 02:13:31;;;;;;;4.50;2.00;;;17.60;50.30;;;;;;7366949;19;20010;-76
2022/06/01 02:16:00;;;;;;;;;;;17.50;50.50;;;;;;7369027;19;20039;-77
2022/06/01 02:18:34;;;;;;;3.45;1.85;;;17.40;50.60;;;;;;7368088;19;19929;-77
2022/06/01 02:21:07;;;;;;;3.03;1.85;;;17.30;50.70;;;;;;7368420;19;20082;-77
2022/06/01 02:23:37;;;;;;;3.03;1.80;;;17.30;50.70;;;;;;7369664;19;20010;-77
2022/06/01 02:26:06;;;;;;;2.15;1.30;;;17.30;50.60;;;;;;7388904;19;20309;-77
2022/06/01 02:28:41;;;;;;;2.33;1.63;;;17.30;51.30;;;;;;7366681;19;20335;-77
2022/06/01 02:31:11;;;;;;;2.88;1.67;;;17.30;50.60;;;;;;7367594;19;20014;-77
2022/06/01 02:33:44;;;;;;;3.70;1.65;;;17.20;50.50;;;;;;7367547;19;20463;-77
2022/06/01 02:36:16;;;;;;;2.30;1.85;;;17.30;50.20;;;;;;7368223;19;20027;-77
2022/06/01 02:38:47;;;;;;;2.33;1.70;;;17.20;50.30;;;;;;7368970;19;20029;-77
2022/06/01 02:44:01;;;;;;;4.78;1.90;;;17.10;50.80;;;;;;7390190;19;20018;-76
2022/06/01 02:46:31;;;;;;;3.33;1.98;;;17.10;51.00;;;;;;7371460;19;20047;-77
2022/06/01 02:49:00;;;;;;;4.13;1.85;;;17.00;51.10;;;;;;7375000;19;20730;-76
2022/06/01 02:51:29;;;;;;;3.65;1.50;;;17.00;51.30;;;;;;7375196;19;20015;-77
2022/06/01 02:53:58;;;;;;;2.72;1.95;;;16.90;51.30;;;;;;7373782;19;20153;-77
2022/06/01 02:56:28;;;;;;;5.97;1.75;;;17.00;51.30;;;;;;7375188;19;20027;-77
2022/06/01 02:58:59;;;;;;;2.15;1.70;;;17.00;51.10;;;;;;7397514;19;20018;-77
2022/06/01 03:01:28;;;;;;;;;;;17.00;50.90;;;;;;7374487;19;20074;-76
2022/06/01 03:03:57;;;;;;;3.35;1.70;;;17.00;50.90;;;;;;7374132;19;19919;-77
2022/06/01 03:06:26;;;;;;;2.78;1.88;;;17.00;50.90;;;;;;7373263;19;20021;-77
2022/06/01 03:08:59;;;;;;;4.55;1.90;;;16.90;51.10;;;;;;7373045;19;20015;-78
2022/06/01 03:11:28;;;;;;;3.15;1.65;;;16.90;51.30;;;;;;7374845;19;20015;-78
2022/06/01 03:13:56;;;;;;;2.00;1.73;;;16.80;51.40;;;;;;7392304;19;20078;-77
2022/06/01 03:16:28;;;;;;;2.95;1.50;;;16.70;51.50;;;;;;7372550;19;20025;-78
2022/06/01 03:18:56;;;;;;;;;;;16.70;51.40;;;;;;7376088;19;20035;-77
2022/06/01 03:21:25;;;;;;;4.05;2.03;;;16.70;51.20;;;;;;7374705;19;20002;-77
2022/06/01 03:23:55;;;;;;;4.03;1.80;;;16.70;51.40;;;;;;7374201;19;20014;-77
2022/06/01 03:26:24;;;;;;;3.53;1.77;;;16.60;51.70;;;;;;7372993;19;20011;-78
2022/06/01 03:28:53;;;;;;;2.78;1.80;;;16.60;51.80;;;;;;7394917;19;20051;-77
2022/06/01 03:31:22;;;;;;;6.45;2.17;;;16.60;52.00;;;;;;7370777;19;20011;-77
2022/06/01 03:33:53;;;;;;;3.97;2.08;;;16.50;52.00;;;;;;7374176;19;20048;-77
2022/06/01 03:36:22;;;;;;;2.38;1.77;;;16.50;52.10;;;;;;7373928;19;20077;-77
2022/06/01 03:38:54;;;;;;;4.03;1.80;;;16.50;52.10;;;;;;7373911;19;20054;-75
2022/06/01 03:41:23;;;;;;;2.20;2.00;;;16.40;52.30;;;;;;7371051;19;20401;-76
2022/06/01 03:46:34;;;;;;;3.17;2.03;;;16.30;52.50;;;;;;7371195;19;20018;-76
2022/06/01 03:49:05;;;;;;;3.83;1.92;;;16.30;52.80;;;;;;7370567;19;20516;-76
2022/06/01 03:51:36;;;;;;;2.53;2.00;;;16.20;52.80;;;;;;7370144;19;20281;-77
2022/06/01 03:54:06;;;;;;;3.35;1.83;;;16.20;52.90;;;;;;7374378;19;20461;-76
2022/06/01 03:56:35;;;;;;;4.15;1.80;;;16.20;52.90;;;;;;7373349;19;20022;-77
2022/06/01 03:59:04;;;;;;;4.72;2.00;;;16.10;53.00;;;;;;7392813;19;20026;-76
2022/06/01 04:01:32;;;;;;;5.45;1.92;;;16.20;53.20;;;;;;7371935;19;20126;-76
2022/06/01 04:04:01;;;;;;;5.30;2.10;;;16.20;53.00;;;;;;7372482;19;20102;-77
2022/06/01 04:06:33;;;;;;;3.42;1.80;;;16.20;52.80;;;;;;7373731;19;20019;-76
2022/06/01 04:09:05;;;;;;;5.80;2.03;;;16.20;52.90;;;;;;7371883;19;20559;-76
2022/06/01 04:11:34;;;;;;;2.42;1.90;;;16.10;52.90;;;;;;7372900;19;20098;-76
2022/06/01 04:14:02;;;;;;;3.25;1.85;;;16.10;53.00;;;;;;7394046;19;20086;-76
2022/06/01 04:16:31;;;;;;;3.45;1.83;;;16.10;53.00;;;;;;7372740;19;20097;-76
2022/06/01 04:19:00;;;;;;;4.85;1.98;;;16.10;53.00;;;;;;7370763;19;20025;-76
2022/06/01 04:21:39;;;;;;;4.22;2.03;;;16.10;52.90;;;;;;7370255;19;20180;-76
2022/06/01 04:24:09;;;;;;;2.42;1.92;;;16.20;52.90;;;;;;7373143;19;20082;-76
2022/06/01 04:26:38;;;;;;;3.10;1.70;;;16.20;52.80;;;;;;7372052;19;20927;-76
2022/06/01 04:29:07;;;;;;;4.22;2.10;;;16.30;52.80;;;;;;7389261;19;20023;-76
2022/06/01 04:31:36;;;;;;;5.60;2.38;;;16.30;52.80;;;;;;7370676;19;20014;-76
2022/06/01 04:34:05;;;;;;;4.80;2.03;;;16.20;52.80;;;;;;7373092;19;20437;-76
2022/06/01 04:36:39;;;;;;;5.30;1.92;;;16.20;52.80;;;;;;7371546;19;20014;-77
2022/06/01 04:39:08;;;;;;;2.40;1.70;;;16.20;53.10;;;;;;7368650;19;20340;-76
2022/06/01 04:41:37;;;;;;;3.80;1.98;;;16.20;53.00;;;;;;7372174;19;20022;-76
2022/06/01 04:44:07;;;;;;;5.60;2.40;;;16.20;53.30;;;;;;7392897;19;20312;-76
2022/06/01 04:46:36;;;;;;;5.45;2.35;;;16.20;53.40;;;;;;7367661;19;20097;-76
2022/06/01 04:49:07;;;;;;;5.70;2.10;;;16.20;53.30;;;;;;7369499;19;20117;-75
2022/06/01 04:51:39;;;;;;;3.08;2.00;;;16.30;53.40;;;;;;7370613;19;20320;-77
2022/06/01 04:54:08;;;;;;;4.28;1.88;;;16.30;53.30;;;;;;7371980;19;20015;-77
2022/06/01 04:56:41;;;;;;;56.72;35.92;;;16.30;53.10;;;;;;7370328;19;20031;-76
2022/06/01 04:59:09;;;;;;;13.27;7.90;;;16.40;53.40;;;;;;7389765;19;20093;-76
2022/06/01 05:01:38;;;;;;;7.60;3.67;;;16.50;53.20;;;;;;7368808;19;20378;-75
2022/06/01 05:04:07;;;;;;;9.05;4.40;;;16.50;53.20;;;;;;7369232;19;20441;-75
2022/06/01 05:06:38;;;;;;;4.80;3.03;;;16.40;53.20;;;;;;7371321;19;20094;-77
2022/06/01 05:09:07;;;;;;;4.68;2.20;;;16.40;53.40;;;;;;7371168;19;20010;-78
2022/06/01 05:11:36;;;;;;;3.95;1.98;;;16.40;53.70;;;;;;7369984;19;20014;-76
2022/06/01 05:14:05;;;;;;;3.80;2.00;;;16.40;53.60;;;;;;7389221;19;20348;-76
2022/06/01 05:16:34;;;;;;;7.18;2.35;;;16.40;53.50;;;;;;7368851;19;20034;-76
2022/06/01 05:19:03;;;;;;;4.32;1.85;;;16.40;53.70;;;;;;7370382;19;20018;-75
2022/06/01 05:21:32;;;;;;;4.30;2.13;;;16.40;53.90;;;;;;7370987;19;20374;-76
2022/06/01 05:24:03;;;;;;;5.60;2.00;;;16.50;54.10;;;;;;7371012;19;20026;-76
2022/06/01 05:26:34;;;;;;;10.60;6.28;;;16.50;54.00;;;;;;7369796;19;20015;-76
2022/06/01 05:29:03;;;;;;;9.68;4.82;;;16.60;54.10;;;;;;7392301;19;20793;-75
2022/06/01 05:31:32;;;;;;;7.25;3.17;;;16.60;53.90;;;;;;7368915;19;20018;-75
2022/06/01 05:34:00;;;;;;;3.75;2.40;;;16.70;53.90;;;;;;7369387;19;20046;-75
2022/06/01 05:36:29;;;;;;;5.50;2.20;;;16.70;53.90;;;;;;7366614;19;20018;-75
2022/06/01 05:38:58;;;;;;;3.97;2.00;;;16.70;54.00;;;;;;7369039;19;20066;-77
2022/06/01 05:41:29;;;;;;;5.75;2.42;;;16.80;54.10;;;;;;7371078;19;20441;-78
2022/06/01 05:43:59;;;;;;;155.25;104.38;;;16.80;54.00;;;;;;7392871;19;20086;-78
2022/06/01 05:46:30;;;;;;;11.77;6.20;;;16.90;54.30;;;;;;7369382;19;20007;-75
2022/06/01 05:48:58;;;;;;;;;;;16.90;54.40;;;;;;7369751;19;20022;-74
2022/06/01 05:51:27;;;;;;;16.80;8.70;;;17.00;54.50;;;;;;7367886;19;19923;-77
2022/06/01 05:53:56;;;;;;;15.98;9.50;;;17.00;54.60;;;;;;7369204;19;20090;-76
2022/06/01 05:56:25;;;;;;;6.45;2.67;;;17.00;54.60;;;;;;7370811;19;20039;-76
2022/06/01 05:58:56;;;;;;;11.25;3.25;;;17.00;54.50;;;;;;7389553;19;20018;-75
2022/06/01 06:01:25;;;;;;;5.10;2.42;;;17.10;54.70;;;;;;7360212;19;20018;-76
2022/06/01 06:03:53;;;;;;;4.65;2.60;;;17.20;54.60;;;;;;7368885;19;20027;-76
2022/06/01 06:06:23;;;;;;;5.90;2.20;;;17.30;54.90;;;;;;7363452;19;20126;-76
2022/06/01 06:08:54;;;;;;;9.02;2.80;;;17.40;55.20;;;;;;7365956;19;20022;-76
2022/06/01 06:11:23;;;;;;;6.03;2.95;;;17.50;55.20;;;;;;7365620;19;20102;-76
2022/06/01 06:13:52;;;;;;;7.47;2.60;;;17.50;55.00;;;;;;7387883;19;20607;-76
2022/06/01 06:16:24;;;;;;;5.47;2.00;;;17.60;55.00;;;;;;7367855;19;20083;-75
2022/06/01 06:18:56;;;;;;;4.68;2.15;;;17.70;54.80;;;;;;7366252;19;20125;-76
2022/06/01 06:21:25;;;;;;;4.13;1.77;;;17.80;54.60;;;;;;7371350;19;20023;-76
2022/06/01 06:23:54;;;;;;;5.93;2.10;;;17.80;53.20;;;;;;7374974;19;20082;-76
2022/06/01 06:26:23;;;;;;;5.82;2.00;;;17.90;52.90;;;;;;7376119;19;20022;-76
2022/06/01 06:28:52;;;;;;;13.65;3.80;;;17.90;52.40;;;;;;7392415;19;20025;-75
2022/06/01 06:31:23;;;;;;;3.60;1.85;;;18.00;52.10;;;;;;7370863;19;20018;-76
2022/06/01 06:33:52;;;;;;;4.55;1.30;;;18.10;51.40;;;;;;7372080;19;20014;-75
2022/06/01 06:36:21;;;;;;;4.18;1.50;;;18.00;50.60;;;;;;7374794;19;20037;-75
2022/06/01 06:38:53;;;;;;;6.18;1.98;;;18.00;50.80;;;;;;7370064;19;20072;-75
2022/06/01 06:41:25;;;;;;;6.78;1.70;;;18.10;51.00;;;;;;7369843;19;20078;-77
2022/06/01 06:43:55;;;;;;;4.47;2.55;;;18.10;50.60;;;;;;7397037;19;20022;-77
2022/06/01 06:46:26;;;;;;;2.67;2.10;;;18.20;50.20;;;;;;7373672;19;20038;-77
2022/06/01 06:48:55;;;;;;;6.78;1.38;;;18.30;50.10;;;;;;7375636;19;20117;-78
2022/06/01 06:51:25;;;;;;;4.05;1.58;;;18.20;50.20;;;;;;7372032;19;20520;-77
2022/06/01 06:53:54;;;;;;;4.88;1.15;;;18.30;50.00;;;;;;7373823;19;20018;-77
2022/06/01 06:56:24;;;;;;;2.53;1.20;;;18.40;49.70;;;;;;7374632;19;20578;-75
2022/06/01 06:58:53;;;;;;;4.28;1.50;;;18.50;50.00;;;;;;7392819;19;20098;-75
2022/06/01 07:01:22;;;;;;;7.35;1.30;;;18.50;50.30;;;;;;7373219;19;20098;-75
2022/06/01 07:03:53;;;;;;;1.75;1.27;;;18.40;51.20;;;;;;7371651;19;20015;-75
2022/06/01 07:06:22;;;;;;;4.90;1.33;;;18.40;49.90;;;;;;7370855;19;20482;-75
2022/06/01 07:08:53;;;;;;;4.00;1.42;;;18.60;49.80;;;;;;7371517;19;20014;-78
2022/06/01 07:11:23;;;;;;;3.92;1.20;;;18.50;49.70;;;;;;7367200;19;20433;-78
2022/06/01 07:13:56;;;;;;;4.10;1.45;;;18.60;49.80;;;;;;7390073;19;20120;-77
2022/06/01 07:16:27;;;;;;;4.10;1.30;;;18.60;49.50;;;;;;7371792;19;20043;-77
2022/06/01 07:19:01;;;;;;;5.13;1.67;;;18.70;49.60;;;;;;7370965;19;20021;-77
2022/06/01 07:21:31;;;;;;;2.63;1.30;;;18.70;49.50;;;;;;7370922;19;20035;-76
2022/06/01 07:24:00;;;;;;;4.72;1.40;;;18.80;49.50;;;;;;7373325;19;20128;-77
2022/06/01 07:26:32;;;;;;;2.42;1.35;;;18.90;49.80;;;;;;7373196;19;20018;-77
2022/06/01 07:29:00;;;;;;;6.65;2.70;;;19.00;49.90;;;;;;7390771;19;20039;-77
2022/06/01 07:31:29;;;;;;;53.10;30.38;;;19.10;49.70;;;;;;7367708;19;20090;-77
2022/06/01 07:34:01;;;;;;;9.32;4.00;;;19.10;49.00;;;;;;7368326;19;20089;-76
2022/06/01 07:36:32;;;;;;;4.13;3.00;;;19.10;48.80;;;;;;7371718;19;20331;-77
2022/06/01 07:44:26;;;;;;;4.75;1.60;;;19.20;48.70;;;;;;7374374;19;19926;-76
2022/06/01 07:46:55;;;;;;;6.35;1.52;;;19.30;48.80;;;;;;7393910;19;20452;-77
2022/06/01 07:49:26;;;;;;;5.03;1.73;;;19.10;48.10;;;;;;7373718;19;20027;-76
2022/06/01 07:51:56;;;;;;;3.13;1.40;;;19.10;48.00;;;;;;7372217;19;20021;-77
2022/06/01 07:54:29;;;;;;;2.35;1.50;;;19.10;48.20;;;;;;7372988;19;20083;-77
2022/06/01 07:56:58;;;;;;;2.80;1.40;;;19.10;48.40;;;;;;7372321;19;20089;-76
2022/06/01 07:59:26;;;;;;;3.03;1.40;;;19.10;48.60;;;;;;7374267;19;20015;-76
2022/06/01 08:01:55;;;;;;;4.28;1.38;;;18.90;48.90;;;;;;7392811;19;20118;-76
2022/06/01 08:04:26;;;;;;;7.38;1.50;;;18.70;50.10;;;;;;7373422;19;20018;-76
2022/06/01 08:06:55;;;;;;;4.47;1.45;;;18.80;49.60;;;;;;7373661;19;20016;-76
2022/06/01 08:09:24;;;;;;;4.85;1.98;;;18.70;49.40;;;;;;7371836;19;20086;-75
2022/06/01 08:14:35;;;;;;;3.88;1.52;;;19.00;49.40;;;;;;7370355;19;20431;-76
2022/06/01 08:17:04;;;;;;;4.15;1.42;;;19.10;49.00;;;;;;7393245;19;20029;-76
2022/06/01 08:19:35;;;;;;;2.53;1.40;;;19.10;49.00;;;;;;7369696;19;20082;-76
2022/06/01 08:22:04;;;;;;;4.82;1.50;;;19.30;49.10;;;;;;7371754;19;20023;-76
2022/06/01 08:24:33;;;;;;;3.63;1.30;;;19.20;48.60;;;;;;7370566;19;20015;-76
2022/06/01 08:27:02;;;;;;;6.18;1.88;;;19.20;48.50;;;;;;7371022;19;20026;-75
2022/06/01 08:29:30;;;;;;;3.67;1.50;;;19.20;48.20;;;;;;7370085;19;20097;-76
2022/06/01 08:31:59;;;;;;;2.45;1.50;;;19.30;48.40;;;;;;7391263;19;20118;-75
2022/06/01 08:34:29;;;;;;;6.47;1.70;;;19.20;48.30;;;;;;7370481;19;20053;-75
2022/06/01 08:37:01;;;;;;;4.03;1.45;;;19.30;48.30;;;;;;7369914;19;20018;-75
2022/06/01 08:39:30;;;;;;;4.00;1.48;;;19.40;48.30;;;;;;7371525;19;20093;-75
2022/06/01 08:42:00;;;;;;;3.30;1.38;;;19.40;48.20;;;;;;7370995;19;20113;-76
2022/06/01 08:44:32;;;;;;;7.28;1.60;;;19.40;47.90;;;;;;7368688;19;20029;-76
2022/06/01 08:47:06;;;;;;;5.95;1.85;;;19.20;48.30;;;;;;7393093;19;20086;-76
2022/06/01 08:49:37;;;;;;;4.57;1.60;;;19.20;48.50;;;;;;7371432;19;20022;-76
2022/06/01 08:52:10;;;;;;;5.78;1.70;;;19.30;48.00;;;;;;7370124;19;20189;-77
2022/06/01 08:54:39;;;;;;;2.85;1.40;;;19.20;47.90;;;;;;7370491;19;20026;-77
2022/06/01 08:57:10;;;;;;;3.58;1.38;;;19.20;47.90;;;;;;7370011;19;20014;-76
2022/06/01 08:59:48;;;;;;;4.60;1.20;;;19.30;48.00;;;;;;7369985;19;20015;-75
2022/06/01 09:02:41;;;;;;;8.95;2.00;;;19.30;48.30;;;;;;7390463;19;20026;-75
2022/06/01 09:05:14;;;;;;;4.47;1.60;;;19.40;47.70;;;;;;7369547;19;20598;-76
2022/06/01 09:07:53;;;;;;;6.90;1.58;;;19.50;47.70;;;;;;7369500;19;20082;-76
2022/06/01 09:10:43;;;;;;;4.63;1.55;;;19.40;47.30;;;;;;7368510;19;20874;-75
2022/06/01 09:13:15;;;;;;;5.95;1.40;;;19.40;47.40;;;;;;7369864;19;20629;-75
2022/06/01 09:15:52;;;;;;;3.63;1.55;;;19.50;47.50;;;;;;7369711;19;20018;-74
2022/06/01 09:18:27;;;;;;;3.00;1.50;;;19.50;48.20;;;;;;7369540;19;20015;-75
2022/06/01 09:23:46;;;;;;;5.95;2.10;;;19.10;48.20;;;;;;7371339;19;20106;-76
2022/06/01 09:26:27;;;;;;;6.32;1.63;;;19.20;48.60;;;;;;7390576;19;20015;-76
2022/06/01 09:28:58;;;;;;;9.73;1.85;;;19.40;48.50;;;;;;7367994;19;20019;-76
2022/06/01 09:31:32;;;;;;;6.78;1.90;;;19.50;48.30;;;;;;7366830;19;20902;-76
2022/06/01 09:34:30;;;;;;;9.80;1.63;;;19.50;47.60;;;;;;7367195;19;20037;-76
2022/06/01 09:37:07;;;;;;;4.72;1.52;;;19.50;47.50;;;;;;7367032;19;20026;-75
2022/06/01 09:39:41;;;;;;;6.03;1.73;;;19.40;47.90;;;;;;7367781;19;20018;-76
2022/06/01 09:42:23;;;;;;;5.80;1.42;;;19.50;47.80;;;;;;7367990;19;20045;-76
2022/06/01 09:44:52;;;;;;;3.50;1.58;;;19.50;47.60;;;;;;7367814;19;20014;-76
2022/06/01 09:47:34;;;;;;;6.53;1.52;;;19.10;47.60;;;;;;7368754;19;20022;-76
2022/06/01 09:50:05;;;;;;;4.55;1.52;;;19.40;47.80;;;;;;7388404;19;20015;-76
2022/06/01 09:52:41;;;;;;;4.13;1.52;;;19.40;47.40;;;;;;7369569;19;20135;-75
2022/06/01 09:55:16;;;;;;;7.45;1.65;;;19.60;47.40;;;;;;7365188;19;20101;-76
2022/06/01 09:57:46;;;;;;;5.78;1.63;;;19.30;47.30;;;;;;7364852;19;20081;-75
2022/06/01 10:06:25;;;;;;;3.70;1.27;;;19.60;46.00;;;;;;7369820;19;20010;-76
2022/06/01 10:09:03;;;;;;;74.73;51.43;;;19.80;45.60;;;;;;7364667;19;20069;-77
2022/06/01 10:11:40;;;;;;;4.93;2.50;;;19.80;45.70;;;;;;7367972;19;20029;-78
2022/06/01 10:14:18;;;;;;;2.97;1.85;;;20.10;45.70;;;;;;7388082;19;20010;-78
2022/06/01 10:17:01;;;;;;;3.50;1.48;;;20.10;45.70;;;;;;7367468;19;20018;-79
2022/06/01 10:19:35;;;;;;;4.75;1.27;;;20.20;46.00;;;;;;7368730;19;20460;-78
2022/06/01 10:22:10;;;;;;;5.18;1.67;;;20.20;45.90;;;;;;7364999;19;20022;-78
2022/06/01 10:24:51;;;;;;;3.65;1.50;;;20.30;45.10;;;;;;7364471;19;20030;-76
2022/06/01 10:27:28;;;;;;;2.87;1.37;;;20.50;45.30;;;;;;7362420;19;20370;-73
2022/06/01 10:30:12;;;;;;;3.05;1.23;;;20.70;45.20;;;;;;7363625;19;20015;-74
2022/06/01 10:32:49;;;;;;;3.20;1.13;;;20.90;44.40;;;;;;7358407;19;20090;-75
2022/06/01 10:35:32;;;;;;;4.15;1.10;;;20.90;44.20;;;;;;7372014;19;20010;-75
2022/06/01 10:38:17;;;;;;;5.20;1.20;;;20.50;43.50;;;;;;7385697;19;20022;-74
2022/06/01 10:40:51;;;;;;;4.70;1.20;;;20.70;43.50;;;;;;7363717;19;20018;-74
2022/06/01 10:43:38;;;;;;;3.65;1.00;;;20.80;43.60;;;;;;7363819;19;20030;-75
2022/06/01 10:46:20;;;;;;;2.83;1.15;;;20.80;43.90;;;;;;7367492;19;20025;-75
2022/06/01 10:48:59;;;;;;;2.65;1.20;;;21.00;44.00;;;;;;7363683;19;20920;-74
2022/06/01 10:51:34;;;;;;;3.20;1.17;;;21.10;44.10;;;;;;7365843;19;20044;-76
2022/06/01 10:54:12;;;;;;;2.83;1.20;;;21.00;43.30;;;;;;7362242;19;20050;-76
2022/06/01 10:56:42;;;;;;;3.25;1.38;;;20.70;44.20;;;;;;7365809;19;20030;-74
2022/06/01 10:59:21;;;;;;;3.27;1.20;;;20.70;44.90;;;;;;7386513;19;20018;-75
2022/06/01 11:02:02;;;;;;;2.47;1.50;;;20.70;44.70;;;;;;7366006;19;20040;-75
2022/06/01 11:04:50;;;;;;;3.30;1.60;;;20.70;44.50;;;;;;7364166;19;20043;-75
2022/06/01 11:07:43;;;;;;;1.38;1.10;;;20.80;44.30;;;;;;7364769;19;20019;-75
2022/06/01 11:10:24;;;;;;;5.00;1.50;;;20.80;43.90;;;;;;7370810;19;20011;-75
2022/06/01 11:13:06;;;;;;;4.77;1.37;;;20.70;43.40;;;;;;7372328;19;20014;-75
2022/06/01 11:15:50;;;;;;;3.05;1.40;;;20.60;42.90;;;;;;7370407;19;20284;-76
2022/06/01 11:18:41;;;;;;;6.32;1.20;;;20.80;42.70;;;;;;7371563;19;20015;-75
2022/06/01 11:21:21;;;;;;;2.50;0.90;;;20.90;42.40;;;;;;7370506;19;20025;-74
2022/06/01 11:24:04;;;;;;;3.83;1.17;;;21.20;41.50;;;;;;7368923;19;20022;-74
2022/06/01 11:26:49;;;;;;;2.55;1.02;;;21.20;41.70;;;;;;7367338;19;20021;-74
2022/06/01 11:29:38;;;;;;;3.65;0.98;;;21.30;42.50;;;;;;7387617;19;20074;-76
2022/06/01 11:32:18;;;;;;;6.75;1.10;;;21.40;41.40;;;;;;7392862;19;20542;-74
2022/06/01 11:34:54;;;;;;;6.05;0.90;;;21.50;40.90;;;;;;7372163;19;21006;-75
2022/06/01 11:37:31;;;;;;;4.70;0.90;;;21.10;40.40;;;;;;7369704;19;20114;-75
2022/06/01 11:40:28;;;;;;;25.00;14.40;;;21.20;40.40;;;;;;7370065;19;20129;-72
2022/06/01 11:43:05;;;;;;;1.77;1.10;;;21.30;40.30;;;;;;7370653;19;20019;-74
2022/06/01 11:45:38;;;;;;;7.03;1.10;;;21.20;40.30;;;;;;7371372;19;20085;-74
2022/06/01 11:48:14;;;;;;;5.47;1.30;;;21.30;39.80;;;;;;7370380;19;20022;-74
2022/06/01 11:50:58;;;;;;;2.05;0.98;;;21.30;39.30;;;;;;7368981;19;20015;-76
2022/06/01 11:53:36;;;;;;;2.65;0.75;;;21.50;40.00;;;;;;7371356;19;20027;-75
2022/06/01 11:56:19;;;;;;;4.47;1.10;;;21.60;41.40;;;;;;7392314;19;20011;-75
2022/06/01 11:59:07;;;;;;;3.30;1.00;;;21.70;39.40;;;;;;7373636;19;20018;-75
2022/06/01 12:01:51;;;;;;;3.80;1.05;;;21.80;39.60;;;;;;7372286;19;20010;-75
2022/06/01 12:04:33;;;;;;;2.80;1.00;;;21.80;40.40;;;;;;7373417;19;20010;-76
2022/06/01 12:07:09;;;;;;;5.10;1.02;;;21.90;40.10;;;;;;7370107;19;20025;-75
2022/06/01 12:09:48;;;;;;;2.78;0.93;;;22.00;40.90;;;;;;7368867;19;20022;-75
2022/06/01 12:12:46;;;;;;;3.00;0.95;;;22.10;40.20;;;;;;7368142;19;20052;-76
2022/06/01 12:15:29;;;;;;;8.10;1.08;;;22.20;40.80;;;;;;7367474;19;20517;-76
2022/06/01 12:18:29;;;;;;;7.30;1.38;;;22.10;40.10;;;;;;7365076;19;20022;-76
2022/06/01 12:21:31;;;;;;;3.08;1.00;;;21.90;40.00;;;;;;7369985;19;20085;-76
2022/06/01 12:30:03;;;;;;;1.27;0.80;;;21.70;40.40;;;;;;7369143;19;20018;-76
2022/06/01 12:32:33;;;;;;;;;;;21.90;39.50;;;;;;7369601;19;20042;-74
2022/06/01 12:35:10;;;;;;;3.55;0.75;;;22.10;39.30;;;;;;7391710;19;20220;-75
2022/06/01 12:37:50;;;;;;;4.25;1.58;;;22.30;39.70;;;;;;7370667;19;20554;-76
2022/06/01 12:40:22;;;;;;;5.97;1.45;;;22.50;39.20;;;;;;7370462;19;20027;-76
2022/06/01 12:42:56;;;;;;;6.75;1.50;;;22.70;39.20;;;;;;7371046;19;20010;-75
2022/06/01 12:45:28;;;;;;;4.88;1.20;;;22.80;38.80;;;;;;7368010;19;20764;-76
2022/06/01 12:48:04;;;;;;;3.72;1.17;;;22.80;39.00;;;;;;7372878;19;20016;-75
2022/06/01 12:50:35;;;;;;;3.97;1.27;;;22.70;38.60;;;;;;7369129;19;20105;-74
2022/06/01 12:53:15;;;;;;;1.23;1.00;;;22.70;37.40;;;;;;7392740;19;20134;-75
2022/06/01 12:55:45;;;;;;;2.85;1.08;;;22.70;37.30;;;;;;7371080;19;20021;-75
2022/06/01 12:58:23;;;;;;;2.80;0.75;;;22.70;36.80;;;;;;7368605;19;20049;-75
2022/06/01 13:00:54;;;;;;;5.45;1.08;;;22.70;37.50;;;;;;7369780;19;20014;-76
2022/06/01 13:03:26;;;;;;;3.80;1.10;;;22.70;38.90;;;;;;7369797;19;20027;-76
2022/06/01 13:05:59;;;;;;;2.15;0.80;;;22.80;38.10;;;;;;7368504;19;20790;-75
2022/06/01 13:08:35;;;;;;;1.83;1.25;;;22.80;37.60;;;;;;7369445;19;20015;-75
2022/06/01 13:11:21;;;;;;;2.42;0.95;;;22.60;37.80;;;;;;7389758;19;20010;-76
2022/06/01 13:13:51;;;;;;;1.17;0.77;;;22.70;38.60;;;;;;7369713;19;20015;-75
2022/06/01 13:16:22;;;;;;;2.15;0.85;;;22.80;38.40;;;;;;7367157;19;20063;-76
2022/06/01 13:18:52;;;;;;;3.60;0.93;;;22.70;39.20;;;;;;7368833;19;20045;-77
2022/06/01 13:21:33;;;;;;;1.95;0.93;;;22.80;38.60;;;;;;7368906;19;20103;-77
2022/06/01 13:24:08;;;;;;;2.53;0.90;;;22.90;38.00;;;;;;7370194;19;20047;-77
2022/06/01 13:26:40;;;;;;;3.78;0.80;;;22.90;38.40;;;;;;7364488;19;20018;-76
2022/06/01 13:29:18;;;;;;;0.93;0.70;;;22.80;38.50;;;;;;7387966;19;20040;-75
2022/06/01 13:31:51;;;;;;;1.55;0.90;;;22.70;38.70;;;;;;7370423;19;20014;-76
2022/06/01 13:34:24;;;;;;;3.42;0.90;;;22.60;38.10;;;;;;7368023;19;20014;-75
2022/06/01 13:36:55;;;;;;;4.18;1.17;;;22.50;38.00;;;;;;7368042;19;20018;-75
2022/06/01 13:39:37;;;;;;;3.03;0.82;;;22.50;38.80;;;;;;7368757;19;20025;-76
2022/06/01 13:42:06;;;;;;;3.80;0.88;;;22.40;38.10;;;;;;7366883;19;20469;-75
2022/06/01 13:44:53;;;;;;;4.47;1.42;;;22.50;38.40;;;;;;7366403;19;20019;-75
2022/06/01 13:47:27;;;;;;;5.47;1.00;;;22.40;38.70;;;;;;7366983;19;20026;-76
2022/06/01 13:50:05;;;;;;;2.47;0.90;;;22.60;38.40;;;;;;7390359;19;20018;-75
2022/06/01 13:52:35;;;;;;;3.60;0.70;;;22.70;37.70;;;;;;7365890;19;20117;-75